Time;durP1;ratioP1;P1;durP2;ratioP2;P2;SDS_P1;SDS_P2;PMS_P1;PMS_P2;Temp;Humidity;BMP_temperature;BMP_pressure;BME280_temperature;BME280_humidity;BME280_pressure;Samples;Min_cycle;Max_cycle;Signal;HPM_P1;HPM_P2
2023/09/30 00:04:07;;;;;;;4.30;1.85;;;;;;;;;;10537586;28;20165;-78
2023/09/30 00:09:11;;;;;;;;;;;;;;;;;;10539498;28;20059;-78
2023/09/30 00:14:14;;;;;;;4.63;2.28;;;;;;;;;;10520777;28;20450;-78
2023/09/30 00:19:19;;;;;;;4.28;2.22;;;;;;;;;;10536787;28;20044;-78
2023/09/30 00:24:22;;;;;;;3.33;2.00;;;;;;;;;;10541529;28;20408;-78
2023/09/30 00:29:26;;;;;;;4.10;2.40;;;;;;;;;;10536648;28;20123;-78
2023/09/30 00:34:34;;;;;;;3.67;2.20;;;;;;;;;;10521332;28;20881;-78
2023/09/30 00:39:37;;;;;;;3.47;2.30;;;;;;;;;;10535121;28;20424;-78
2023/09/30 00:44:40;;;;;;;4.28;2.17;;;;;;;;;;10518573;28;20089;-78
2023/09/30 00:49:45;;;;;;;4.20;2.25;;;;;;;;;;10518799;28;20634;-78
2023/09/30 00:54:49;;;;;;;4.00;2.53;;;;;;;;;;10519232;28;20059;-78
2023/09/30 00:59:53;;;;;;;3.05;2.60;;;;;;;;;;10538602;28;20055;-78
2023/09/30 01:04:58;;;;;;;4.22;2.53;;;;;;;;;;10522744;28;20044;-78
2023/09/30 01:10:02;;;;;;;4.10;2.28;;;;;;;;;;10522074;28;20120;-79
2023/09/30 01:15:06;;;;;;;3.85;1.85;;;;;;;;;;10563300;28;20112;-79
2023/09/30 01:20:22;;;;;;;5.05;2.38;;;;;;;;;;10537068;28;20047;-78
2023/09/30 01:25:27;;;;;;;3.83;2.15;;;;;;;;;;10535491;28;20296;-78
2023/09/30 01:30:32;;;;;;;3.10;1.87;;;;;;;;;;10537146;28;20396;-78
2023/09/30 01:35:35;;;;;;;2.95;2.25;;;;;;;;;;10519378;28;20071;-78
2023/09/30 01:40:40;;;;;;;4.53;2.65;;;;;;;;;;10516863;28;20374;-78
2023/09/30 01:45:44;;;;;;;4.07;2.13;;;;;;;;;;10516550;28;20135;-78
2023/09/30 01:50:47;;;;;;;4.65;2.72;;;;;;;;;;10532993;28;20071;-78
2023/09/30 01:55:52;;;;;;;3.90;2.28;;;;;;;;;;10535038;28;20553;-77
2023/09/30 02:01:02;;;;;;;3.25;2.35;;;;;;;;;;10520491;28;20044;-78
2023/09/30 02:06:05;;;;;;;4.30;2.03;;;;;;;;;;10534862;28;20063;-78
2023/09/30 02:11:10;;;;;;;2.83;2.17;;;;;;;;;;10533601;28;20040;-77
2023/09/30 02:16:14;;;;;;;3.95;2.25;;;;;;;;;;10515364;28;20126;-78
2023/09/30 02:21:17;;;;;;;3.42;2.25;;;;;;;;;;10536127;28;20054;-78
2023/09/30 02:26:25;;;;;;;5.68;2.55;;;;;;;;;;10533514;28;20040;-78
2023/09/30 02:31:28;;;;;;;3.13;2.20;;;;;;;;;;10532570;28;20097;-78
2023/09/30 02:36:31;;;;;;;5.63;2.05;;;;;;;;;;10533225;28;20048;-78
2023/09/30 02:41:37;;;;;;;3.20;2.45;;;;;;;;;;10514581;28;20048;-78
2023/09/30 02:46:41;;;;;;;4.13;2.47;;;;;;;;;;10511619;28;20066;-78
2023/09/30 02:51:44;;;;;;;6.47;2.80;;;;;;;;;;10532399;28;20525;-78
2023/09/30 02:56:49;;;;;;;4.60;2.28;;;;;;;;;;10522505;28;20068;-79
2023/09/30 03:01:53;;;;;;;4.70;2.40;;;;;;;;;;10532286;28;20050;-78
2023/09/30 03:06:57;;;;;;;4.38;2.67;;;;;;;;;;10516848;28;20467;-78
2023/09/30 03:12:02;;;;;;;3.50;1.77;;;;;;;;;;10519896;28;20116;-78
2023/09/30 03:17:11;;;;;;;6.97;2.53;;;;;;;;;;10555046;28;20115;-79
2023/09/30 03:22:15;;;;;;;4.00;2.03;;;;;;;;;;10516462;28;20501;-78
2023/09/30 03:27:20;;;;;;;2.97;1.77;;;;;;;;;;10530980;28;20048;-78
2023/09/30 03:32:24;;;;;;;6.50;2.13;;;;;;;;;;10531788;28;20115;-78
2023/09/30 03:37:28;;;;;;;2.83;2.17;;;;;;;;;;10531857;28;20466;-78
2023/09/30 03:42:33;;;;;;;4.82;2.30;;;;;;;;;;10531459;28;20572;-78
2023/09/30 03:47:37;;;;;;;4.90;2.30;;;;;;;;;;10532244;28;20562;-79
2023/09/30 03:52:44;;;;;;;3.85;2.05;;;;;;;;;;10529539;28;20131;-78
2023/09/30 03:57:48;;;;;;;5.05;2.33;;;;;;;;;;10523330;28;20046;-78
2023/09/30 04:02:54;;;;;;;2.63;1.80;;;;;;;;;;10531549;28;20097;-78
2023/09/30 04:07:57;;;;;;;3.38;2.00;;;;;;;;;;10530911;28;20040;-78
2023/09/30 04:13:02;;;;;;;3.60;1.95;;;;;;;;;;10531013;28;20074;-78
2023/09/30 04:18:06;;;;;;;5.55;1.67;;;;;;;;;;10530187;28;20043;-78
2023/09/30 04:23:10;;;;;;;5.15;2.20;;;;;;;;;;10536170;28;20520;-78
2023/09/30 04:28:16;;;;;;;2.17;1.52;;;;;;;;;;10536713;28;20047;-78
2023/09/30 04:33:21;;;;;;;4.55;2.17;;;;;;;;;;10535785;28;20044;-78
2023/09/30 04:38:25;;;;;;;3.78;2.00;;;;;;;;;;10536368;28;20143;-78
2023/09/30 04:43:32;;;;;;;3.65;2.05;;;;;;;;;;10535935;28;20519;-78
2023/09/30 04:48:36;;;;;;;3.58;2.00;;;;;;;;;;10522327;28;20050;-78
2023/09/30 04:53:39;;;;;;;3.75;1.55;;;;;;;;;;10536184;28;20032;-79
2023/09/30 04:58:44;;;;;;;3.70;1.52;;;;;;;;;;10535769;28;20054;-78
2023/09/30 05:03:49;;;;;;;4.50;1.52;;;;;;;;;;10519035;28;20043;-78
2023/09/30 05:08:53;;;;;;;3.33;1.80;;;;;;;;;;10518714;28;20508;-79
2023/09/30 05:13:57;;;;;;;3.03;1.73;;;;;;;;;;10550604;28;20044;-79
2023/09/30 05:19:01;;;;;;;2.58;1.75;;;;;;;;;;10542358;28;20047;-79
2023/09/30 05:24:05;;;;;;;3.80;1.63;;;;;;;;;;10539064;28;20131;-78
2023/09/30 05:29:09;;;;;;;3.40;1.80;;;;;;;;;;10535831;28;20048;-78
2023/09/30 05:34:13;;;;;;;3.67;1.70;;;;;;;;;;10535220;28;20040;-77
2023/09/30 05:39:19;;;;;;;3.83;1.80;;;;;;;;;;10537675;28;20052;-78
2023/09/30 05:44:24;;;;;;;3.63;1.73;;;;;;;;;;10532815;28;20123;-78
2023/09/30 05:49:27;;;;;;;2.42;1.60;;;;;;;;;;10514954;28;20070;-78
2023/09/30 05:54:30;;;;;;;5.13;2.22;;;;;;;;;;10538221;28;20043;-78
2023/09/30 05:59:35;;;;;;;2.80;1.40;;;;;;;;;;10533482;28;20190;-78
2023/09/30 06:04:38;;;;;;;2.25;1.25;;;;;;;;;;10517454;28;20044;-78
2023/09/30 06:09:42;;;;;;;3.33;1.58;;;;;;;;;;10536751;28;20036;-78
2023/09/30 06:14:47;;;;;;;3.63;1.83;;;;;;;;;;10532733;28;20046;-79
2023/09/30 06:19:50;;;;;;;3.28;1.20;;;;;;;;;;10514707;28;20036;-79
2023/09/30 06:24:54;;;;;;;4.65;1.10;;;;;;;;;;10534000;28;20036;-78
2023/09/30 06:29:58;;;;;;;2.78;1.50;;;;;;;;;;10516037;28;20078;-79
2023/09/30 06:35:02;;;;;;;3.20;1.73;;;;;;;;;;10534106;28;20494;-78
2023/09/30 06:40:07;;;;;;;2.95;1.60;;;;;;;;;;10516664;28;20044;-78
2023/09/30 06:45:12;;;;;;;3.70;1.08;;;;;;;;;;10532506;28;20040;-79
2023/09/30 06:50:16;;;;;;;4.57;1.60;;;;;;;;;;10532886;28;20138;-79
2023/09/30 06:55:20;;;;;;;3.03;1.63;;;;;;;;;;10514659;28;20040;-78
2023/09/30 07:00:25;;;;;;;3.67;1.90;;;;;;;;;;10534107;28;20299;-79
2023/09/30 07:05:29;;;;;;;2.42;2.10;;;;;;;;;;10533502;28;20123;-79
2023/09/30 07:10:32;;;;;;;3.88;2.20;;;;;;;;;;10532582;28;20059;-79
2023/09/30 07:15:37;;;;;;;3.30;2.15;;;;;;;;;;10537741;28;20501;-80
2023/09/30 07:20:40;;;;;;;2.80;1.90;;;;;;;;;;10546153;28;20047;-80
2023/09/30 07:25:44;;;;;;;2.95;1.80;;;;;;;;;;10533765;28;20054;-79
2023/09/30 07:30:49;;;;;;;3.40;2.00;;;;;;;;;;10524880;28;20562;-78
2023/09/30 07:35:52;;;;;;;2.95;1.70;;;;;;;;;;10538344;28;20127;-79
2023/09/30 07:47:00;;;;;;;4.30;2.03;;;;;;;;;;4952685;23;20315;-85
2023/09/30 07:52:04;;;;;;;2.63;1.63;;;;;;;;;;10285106;28;20046;-87
2023/09/30 07:57:08;;;;;;;4.93;2.55;;;;;;;;;;10286292;28;20058;-87
2023/09/30 08:02:12;;;;;;;2.65;1.77;;;;;;;;;;10286017;28;20062;-87
2023/09/30 08:07:16;;;;;;;3.33;1.83;;;;;;;;;;10285262;28;20043;-87
2023/09/30 08:12:19;;;;;;;3.40;2.40;;;;;;;;;;10284234;28;20042;-87
2023/09/30 08:17:24;;;;;;;4.10;2.20;;;;;;;;;;10308883;28;20413;-86
2023/09/30 08:22:28;;;;;;;5.60;3.20;;;;;;;;;;10288890;28;20502;-87
2023/09/30 08:27:31;;;;;;;3.33;2.42;;;;;;;;;;10278211;28;20443;-87
2023/09/30 08:32:37;;;;;;;4.00;2.30;;;;;;;;;;10296206;28;20046;-87
2023/09/30 08:37:40;;;;;;;2.90;1.85;;;;;;;;;;10289649;28;20417;-87
2023/09/30 08:42:43;;;;;;;3.30;2.17;;;;;;;;;;10307687;28;20089;-87
2023/09/30 08:47:48;;;;;;;5.03;3.40;;;;;;;;;;10309674;28;20042;-86
2023/09/30 08:52:52;;;;;;;3.93;3.00;;;;;;;;;;10311536;28;20042;-86
2023/09/30 08:57:56;;;;;;;5.72;3.50;;;;;;;;;;10313467;28;20043;-86
2023/09/30 09:03:02;;;;;;;5.78;2.78;;;;;;;;;;10313003;28;20137;-86
2023/09/30 09:08:06;;;;;;;4.20;2.90;;;;;;;;;;10306610;28;20042;-86
2023/09/30 09:13:09;;;;;;;5.68;4.15;;;;;;;;;;10317071;28;20042;-86
2023/09/30 09:18:31;;;;;;;3.50;2.85;;;;;;;;;;10303818;28;20520;-86
2023/09/30 09:23:40;;;;;;;4.35;3.30;;;;;;;;;;10308888;28;20595;-86
2023/09/30 09:28:44;;;;;;;4.72;3.22;;;;;;;;;;10307382;28;20074;-86
2023/09/30 09:33:48;;;;;;;7.88;3.60;;;;;;;;;;10305779;28;20386;-86
2023/09/30 09:38:53;;;;;;;5.78;2.50;;;;;;;;;;10316215;28;20537;-85
2023/09/30 09:43:59;;;;;;;4.03;2.00;;;;;;;;;;10308340;28;20121;-86
2023/09/30 09:49:05;;;;;;;4.60;1.90;;;;;;;;;;10312063;28;20101;-86
2023/09/30 09:54:09;;;;;;;2.60;1.00;;;;;;;;;;10317247;28;20303;-86
2023/09/30 09:59:13;;;;;;;5.70;1.70;;;;;;;;;;10316550;28;20077;-87
2023/09/30 10:04:18;;;;;;;3.95;1.70;;;;;;;;;;10316698;28;20039;-86
2023/09/30 10:09:22;;;;;;;4.05;1.33;;;;;;;;;;10300784;28;20066;-86
2023/09/30 10:14:36;;;;;;;3.42;1.33;;;;;;;;;;10305603;28;20046;-86
2023/09/30 10:20:06;;;;;;;3.40;1.55;;;;;;;;;;10305443;28;20420;-87
2023/09/30 10:25:36;;;;;;;3.35;2.05;;;;;;;;;;10307232;28;20472;-86
2023/09/30 10:30:59;;;;;;;3.15;1.52;;;;;;;;;;10304541;28;20054;-85
2023/09/30 10:36:05;;;;;;;4.28;1.60;;;;;;;;;;10324851;28;20050;-86
2023/09/30 10:41:10;;;;;;;4.13;1.90;;;;;;;;;;10321775;28;20101;-86
2023/09/30 10:46:35;;;;;;;4.25;1.95;;;;;;;;;;10318746;28;20057;-87
2023/09/30 10:51:41;;;;;;;2.97;1.57;;;;;;;;;;10299021;28;20149;-86
2023/09/30 10:56:45;;;;;;;3.88;1.65;;;;;;;;;;10316637;28;20422;-87
2023/09/30 11:01:50;;;;;;;1.73;1.08;;;;;;;;;;10315989;28;20577;-85
2023/09/30 11:06:54;;;;;;;2.70;1.30;;;;;;;;;;10318347;28;20517;-87
2023/09/30 11:11:58;;;;;;;4.18;1.92;;;;;;;;;;10308495;28;20046;-86
2023/09/30 11:17:04;;;;;;;5.20;1.85;;;;;;;;;;10320445;28;20636;-86
2023/09/30 11:22:09;;;;;;;3.88;1.35;;;;;;;;;;10300516;28;20467;-86
2023/09/30 11:27:12;;;;;;;6.82;2.97;;;;;;;;;;10293569;28;20047;-86
2023/09/30 11:32:26;;;;;;;5.03;1.95;;;;;;;;;;10317245;28;20544;-86
2023/09/30 11:37:34;;;;;;;4.45;1.67;;;;;;;;;;10298795;28;20428;-85
2023/09/30 11:42:38;;;;;;;4.53;1.95;;;;;;;;;;10310084;28;20150;-86
2023/09/30 11:47:41;;;;;;;4.13;1.40;;;;;;;;;;10322545;28;20479;-86
2023/09/30 11:52:47;;;;;;;4.47;1.77;;;;;;;;;;10321769;28;20125;-85
2023/09/30 11:57:54;;;;;;;3.50;1.67;;;;;;;;;;10308539;28;20409;-85
2023/09/30 12:02:57;;;;;;;4.22;1.50;;;;;;;;;;10308808;28;20062;-86
2023/09/30 12:08:02;;;;;;;4.00;2.30;;;;;;;;;;10313718;28;20100;-86
2023/09/30 12:13:06;;;;;;;3.60;1.80;;;;;;;;;;10315937;28;20498;-86
2023/09/30 12:18:10;;;;;;;4.35;1.83;;;;;;;;;;10319321;28;20105;-86
2023/09/30 12:23:14;;;;;;;3.15;1.80;;;;;;;;;;10320388;28;20062;-85
2023/09/30 12:28:18;;;;;;;3.17;1.50;;;;;;;;;;10316239;28;20046;-85
2023/09/30 12:33:21;;;;;;;7.05;2.72;;;;;;;;;;10319698;28;20209;-85
2023/09/30 12:38:27;;;;;;;3.63;2.03;;;;;;;;;;10300812;28;20048;-86
2023/09/30 12:43:30;;;;;;;5.28;2.03;;;;;;;;;;10302368;28;20062;-85
2023/09/30 12:48:34;;;;;;;2.80;1.63;;;;;;;;;;10318341;28;20070;-85
2023/09/30 12:53:38;;;;;;;3.75;2.15;;;;;;;;;;10304136;28;20053;-85
2023/09/30 12:58:42;;;;;;;3.15;1.65;;;;;;;;;;10314097;28;20126;-85
2023/09/30 13:03:46;;;;;;;2.97;1.60;;;;;;;;;;10309999;28;20046;-86
2023/09/30 13:08:50;;;;;;;6.75;2.58;;;;;;;;;;10311853;28;20567;-86
2023/09/30 13:13:54;;;;;;;5.28;2.45;;;;;;;;;;10318999;28;20038;-86
2023/09/30 13:18:57;;;;;;;5.13;2.50;;;;;;;;;;10316466;28;20497;-85
2023/09/30 13:24:02;;;;;;;3.70;1.77;;;;;;;;;;10317047;28;20504;-86
2023/09/30 13:29:05;;;;;;;3.65;1.73;;;;;;;;;;10304197;28;20133;-85
2023/09/30 13:34:09;;;;;;;4.57;2.47;;;;;;;;;;10314776;28;20125;-86
2023/09/30 13:39:17;;;;;;;5.40;2.42;;;;;;;;;;10317553;28;20100;-86
2023/09/30 13:44:20;;;;;;;4.85;2.30;;;;;;;;;;10299699;23;20090;-75
2023/09/30 13:49:24;;;;;;;8.02;3.17;;;;;;;;;;10287492;28;20735;-75
2023/09/30 13:54:29;;;;;;;4.22;1.85;;;;;;;;;;10286303;28;20035;-75
2023/09/30 13:59:36;;;;;;;3.30;1.90;;;;;;;;;;10287156;28;20158;-75
2023/09/30 14:04:40;;;;;;;5.05;2.28;;;;;;;;;;10286201;28;20038;-75
2023/09/30 14:09:44;;;;;;;3.00;1.92;;;;;;;;;;10285660;28;20035;-75
2023/09/30 14:14:49;;;;;;;4.70;2.45;;;;;;;;;;10285763;28;20043;-75
2023/09/30 14:19:52;;;;;;;4.95;2.00;;;;;;;;;;10286526;28;20416;-75
2023/09/30 14:24:57;;;;;;;5.28;2.40;;;;;;;;;;10286920;28;20043;-75
2023/09/30 14:30:00;;;;;;;3.65;2.08;;;;;;;;;;10285680;28;20046;-75
2023/09/30 14:35:05;;;;;;;3.83;1.90;;;;;;;;;;10286311;28;20555;-75
2023/09/30 14:40:11;;;;;;;3.40;1.70;;;;;;;;;;10286163;28;20763;-75
2023/09/30 14:45:14;;;;;;;;;;;;;;;;;;10286539;28;20043;-75
2023/09/30 14:50:18;;;;;;;3.10;1.67;;;;;;;;;;10285384;28;19977;-76
2023/09/30 14:55:22;;;;;;;5.82;2.97;;;;;;;;;;10285742;28;20060;-75
2023/09/30 15:00:26;;;;;;;5.07;2.17;;;;;;;;;;10285711;28;20078;-75
2023/09/30 15:05:30;;;;;;;4.25;2.22;;;;;;;;;;10284823;28;20082;-75
2023/09/30 15:10:37;;;;;;;4.22;2.05;;;;;;;;;;10285433;28;20496;-75
2023/09/30 15:15:40;;;;;;;2.97;1.52;;;;;;;;;;10281701;28;20042;-75
2023/09/30 15:20:44;;;;;;;3.45;1.70;;;;;;;;;;10284444;28;20042;-75
2023/09/30 15:25:49;;;;;;;2.85;1.80;;;;;;;;;;10284748;28;20074;-75
2023/09/30 15:30:52;;;;;;;4.43;1.85;;;;;;;;;;10284529;28;20054;-75
2023/09/30 15:35:56;;;;;;;3.47;1.80;;;;;;;;;;10284658;28;20054;-75
2023/09/30 15:41:03;;;;;;;3.17;1.63;;;;;;;;;;10285021;28;20142;-75
2023/09/30 15:46:08;;;;;;;2.97;1.70;;;;;;;;;;10284902;28;20043;-75
2023/09/30 15:51:11;;;;;;;2.87;1.83;;;;;;;;;;10290244;28;20133;-75
2023/09/30 15:56:16;;;;;;;3.75;1.88;;;;;;;;;;10283953;28;20097;-75
2023/09/30 16:01:20;;;;;;;3.35;1.92;;;;;;;;;;10279973;28;20101;-74
2023/09/30 16:06:23;;;;;;;3.05;2.00;;;;;;;;;;10284094;28;20064;-75
2023/09/30 16:11:28;;;;;;;3.10;1.60;;;;;;;;;;10283630;28;20058;-75
2023/09/30 16:16:33;;;;;;;2.97;1.53;;;;;;;;;;10288322;28;20066;-75
2023/09/30 16:21:36;;;;;;;4.65;2.00;;;;;;;;;;10291128;28;20101;-75
2023/09/30 16:26:41;;;;;;;3.25;1.77;;;;;;;;;;10291233;28;20499;-75
2023/09/30 16:31:45;;;;;;;4.07;2.10;;;;;;;;;;10289933;28;20038;-75
2023/09/30 16:36:48;;;;;;;3.30;1.95;;;;;;;;;;10290381;28;20035;-75
2023/09/30 16:41:53;;;;;;;3.90;2.47;;;;;;;;;;10290403;28;20097;-74
2023/09/30 16:46:56;;;;;;;4.57;2.05;;;;;;;;;;10290227;28;20039;-75
2023/09/30 16:52:00;;;;;;;4.57;2.28;;;;;;;;;;10288990;28;20086;-75
2023/09/30 16:57:06;;;;;;;4.03;2.50;;;;;;;;;;10288347;28;20460;-74
2023/09/30 17:02:10;;;;;;;4.63;2.30;;;;;;;;;;10290133;28;20074;-75
2023/09/30 17:07:14;;;;;;;4.85;2.33;;;;;;;;;;10289337;28;20042;-75
2023/09/30 17:12:18;;;;;;;3.67;2.20;;;;;;;;;;10289572;28;20042;-75
2023/09/30 17:17:22;;;;;;;6.07;2.40;;;;;;;;;;10282369;28;20062;-75
2023/09/30 17:22:25;;;;;;;4.88;3.00;;;;;;;;;;10287851;28;20054;-75
2023/09/30 17:27:30;;;;;;;5.28;3.30;;;;;;;;;;10287923;28;20101;-75
2023/09/30 17:32:33;;;;;;;4.68;2.78;;;;;;;;;;10288942;28;20298;-75
2023/09/30 17:37:37;;;;;;;5.25;2.83;;;;;;;;;;10288097;28;20101;-75
2023/09/30 17:42:42;;;;;;;5.40;2.78;;;;;;;;;;10288143;28;20039;-74
2023/09/30 17:47:45;;;;;;;4.32;2.50;;;;;;;;;;10286710;28;20781;-75
2023/09/30 17:52:49;;;;;;;4.53;2.60;;;;;;;;;;10287416;28;20527;-75
2023/09/30 17:57:54;;;;;;;4.25;2.50;;;;;;;;;;10286068;28;20563;-75
2023/09/30 18:02:57;;;;;;;4.03;2.30;;;;;;;;;;10287634;28;20050;-75
2023/09/30 18:08:00;;;;;;;5.18;2.97;;;;;;;;;;10287117;28;20043;-75
2023/09/30 18:13:05;;;;;;;4.88;2.90;;;;;;;;;;10287306;28;20043;-75
2023/09/30 18:18:09;;;;;;;4.78;2.90;;;;;;;;;;10286774;28;20054;-75
2023/09/30 18:23:15;;;;;;;6.78;3.10;;;;;;;;;;10287134;28;20043;-75
2023/09/30 18:28:20;;;;;;;4.68;2.83;;;;;;;;;;10285935;28;20685;-75
2023/09/30 18:33:23;;;;;;;4.68;2.28;;;;;;;;;;10285328;28;20515;-75
2023/09/30 18:38:27;;;;;;;5.35;2.78;;;;;;;;;;10278050;28;20051;-75
2023/09/30 18:43:31;;;;;;;3.65;2.15;;;;;;;;;;10284645;28;20105;-75
2023/09/30 18:48:35;;;;;;;4.43;2.65;;;;;;;;;;10284507;28;20047;-75
2023/09/30 18:53:39;;;;;;;4.13;2.45;;;;;;;;;;10285857;28;20043;-75
2023/09/30 18:58:44;;;;;;;5.60;2.78;;;;;;;;;;10285093;28;20038;-75
2023/09/30 19:03:47;;;;;;;4.93;2.97;;;;;;;;;;10284877;28;20444;-75
2023/09/30 19:08:51;;;;;;;4.38;2.47;;;;;;;;;;10284752;28;20504;-75
2023/09/30 19:13:56;;;;;;;5.03;2.72;;;;;;;;;;10285068;28;20102;-75
2023/09/30 19:19:00;;;;;;;4.40;2.60;;;;;;;;;;10285220;28;20046;-75
2023/09/30 19:24:04;;;;;;;4.35;2.63;;;;;;;;;;10285068;28;20465;-75
2023/09/30 19:29:08;;;;;;;6.00;2.55;;;;;;;;;;10284307;28;20058;-75
2023/09/30 19:34:12;;;;;;;6.68;3.45;;;;;;;;;;10285118;28;20049;-75
2023/09/30 19:39:16;;;;;;;5.32;2.92;;;;;;;;;;10284377;28;20039;-74
2023/09/30 19:44:20;;;;;;;5.43;3.10;;;;;;;;;;10322598;23;20087;-76
2023/09/30 19:49:24;;;;;;;6.20;2.67;;;;;;;;;;10278473;28;20070;-76
2023/09/30 19:54:27;;;;;;;5.45;3.22;;;;;;;;;;10264291;28;20050;-76
2023/09/30 19:59:32;;;;;;;4.07;2.80;;;;;;;;;;10271027;28;20047;-76
2023/09/30 20:04:37;;;;;;;5.28;2.60;;;;;;;;;;10269369;28;20053;-76
2023/09/30 20:09:42;;;;;;;3.63;2.40;;;;;;;;;;10270665;28;20469;-76
2023/09/30 20:14:47;;;;;;;5.10;2.78;;;;;;;;;;10276062;28;20051;-76
2023/09/30 20:19:51;;;;;;;4.00;2.53;;;;;;;;;;10263434;28;20056;-76
2023/09/30 20:24:55;;;;;;;5.95;2.95;;;;;;;;;;10271862;28;20051;-76
2023/09/30 20:30:00;;;;;;;5.80;2.78;;;;;;;;;;10258838;28;20118;-76
2023/09/30 20:35:05;;;;;;;5.38;2.53;;;;;;;;;;10271879;28;20545;-76
2023/09/30 20:40:12;;;;;;;4.50;2.87;;;;;;;;;;10268904;28;20070;-76
2023/09/30 20:45:17;;;;;;;4.60;2.75;;;;;;;;;;10264645;28;20043;-76
2023/09/30 20:50:21;;;;;;;4.53;2.72;;;;;;;;;;10263870;28;20039;-76
2023/09/30 20:55:24;;;;;;;5.72;3.42;;;;;;;;;;10278841;28;20444;-76
2023/09/30 21:00:29;;;;;;;4.57;2.85;;;;;;;;;;10278111;28;20381;-76
2023/09/30 21:05:37;;;;;;;6.55;3.55;;;;;;;;;;10270589;28;20043;-76
2023/09/30 21:10:41;;;;;;;5.88;3.20;;;;;;;;;;10284534;28;20050;-76
2023/09/30 21:15:46;;;;;;;5.88;3.10;;;;;;;;;;10254951;28;20039;-76
2023/09/30 21:20:50;;;;;;;7.15;3.40;;;;;;;;;;10267808;28;20042;-76
2023/09/30 21:25:54;;;;;;;6.10;3.28;;;;;;;;;;10268015;28;20075;-76
2023/09/30 21:30:59;;;;;;;5.80;2.97;;;;;;;;;;10257685;28;20043;-76
2023/09/30 21:36:03;;;;;;;4.50;2.28;;;;;;;;;;10275285;28;20134;-77
2023/09/30 21:41:13;;;;;;;5.60;2.45;;;;;;;;;;10254400;28;20098;-76
2023/09/30 21:46:17;;;;;;;4.60;2.08;;;;;;;;;;10278494;28;20444;-77
2023/09/30 21:51:21;;;;;;;2.92;2.05;;;;;;;;;;10269626;28;20050;-76
2023/09/30 21:56:24;;;;;;;4.03;1.98;;;;;;;;;;10270762;28;20059;-76
2023/09/30 22:01:31;;;;;;;4.65;2.40;;;;;;;;;;10263234;28;20035;-76
2023/09/30 22:06:35;;;;;;;3.33;2.08;;;;;;;;;;10255343;28;20055;-76
2023/09/30 22:11:39;;;;;;;4.53;2.50;;;;;;;;;;10271479;28;20039;-77
2023/09/30 22:16:44;;;;;;;6.63;3.85;;;;;;;;;;10265869;28;20444;-77
2023/09/30 22:21:47;;;;;;;8.48;4.53;;;;;;;;;;10265585;28;20039;-77
2023/09/30 22:26:51;;;;;;;9.85;5.00;;;;;;;;;;10270280;28;20404;-76
2023/09/30 22:31:56;;;;;;;8.90;4.25;;;;;;;;;;10268319;28;20163;-77
2023/09/30 22:36:59;;;;;;;11.13;4.93;;;;;;;;;;10263099;28;20058;-77
2023/09/30 22:42:03;;;;;;;9.07;4.53;;;;;;;;;;10263527;28;20869;-76
2023/09/30 22:47:08;;;;;;;8.20;4.03;;;;;;;;;;10265903;28;20307;-76
2023/09/30 22:52:11;;;;;;;5.65;3.10;;;;;;;;;;10269161;28;20058;-76
2023/09/30 22:57:14;;;;;;;5.70;2.97;;;;;;;;;;10256648;28;20051;-76
2023/09/30 23:02:19;;;;;;;6.50;3.20;;;;;;;;;;10266726;28;20055;-76
2023/09/30 23:07:24;;;;;;;6.20;3.28;;;;;;;;;;10263121;28;20051;-76
2023/09/30 23:12:28;;;;;;;6.18;3.45;;;;;;;;;;10259582;28;20044;-76
2023/09/30 23:17:38;;;;;;;5.78;2.72;;;;;;;;;;10264486;28;20054;-76
2023/09/30 23:22:48;;;;;;;4.53;2.42;;;;;;;;;;10265320;28;20059;-76
2023/09/30 23:27:52;;;;;;;5.07;2.33;;;;;;;;;;10273158;28;20043;-77
2023/09/30 23:32:58;;;;;;;6.25;2.70;;;;;;;;;;10278890;28;20062;-76
2023/09/30 23:38:02;;;;;;;5.45;2.92;;;;;;;;;;10276783;28;20487;-76
2023/09/30 23:43:07;;;;;;;3.97;2.25;;;;;;;;;;10265475;28;20043;-76
2023/09/30 23:48:12;;;;;;;3.63;2.30;;;;;;;;;;10266000;28;20071;-76
2023/09/30 23:53:16;;;;;;;4.32;2.50;;;;;;;;;;10280432;28;20458;-76
2023/09/30 23:58:20;;;;;;;4.75;2.50;;;;;;;;;;10274036;28;20518;-76
